createdAt,value
2023-03-22T00:00:17.259Z,95283.25
2023-03-22T00:02:45.624Z,95285.94
2023-03-22T00:05:14.068Z,95271.13
2023-03-22T00:07:43.647Z,95291.81
2023-03-22T00:10:12.537Z,95283.50
2023-03-22T00:12:40.861Z,95288.06
2023-03-22T00:15:11.309Z,95273.28
2023-03-22T00:17:42.173Z,95288.34
2023-03-22T00:20:11.618Z,95290.72
2023-03-22T00:22:40.604Z,95273.22
2023-03-22T00:25:09.587Z,95280.50
2023-03-22T00:27:38.094Z,95281.03
2023-03-22T00:30:07.657Z,95278.63
2023-03-22T00:32:36.204Z,95273.78
2023-03-22T00:35:07.360Z,95272.16
2023-03-22T00:37:38.819Z,95281.53
2023-03-22T00:40:10.591Z,95277.25
2023-03-22T00:42:39.124Z,95269.75
2023-03-22T00:45:09.568Z,95290.69
2023-03-22T00:47:38.500Z,95287.19
2023-03-22T00:50:09.651Z,95285.84
2023-03-22T00:52:38.023Z,95292.84
2023-03-22T00:55:07.040Z,94914.28
2023-03-22T00:57:35.727Z,95278.63
2023-03-22T01:00:10.219Z,95282.94
2023-03-22T01:02:38.869Z,95293.66
2023-03-22T01:05:09.779Z,95287.50
2023-03-22T01:07:42.075Z,95282.38
2023-03-22T01:10:11.528Z,95277.53
2023-03-22T01:12:40.422Z,95242.38
2023-03-22T01:15:10.250Z,95266.59
2023-03-22T01:17:39.039Z,95281.34
2023-03-22T01:20:11.495Z,95275.97
2023-03-22T01:22:39.931Z,95273.81
2023-03-22T01:25:09.819Z,95278.41
2023-03-22T01:27:38.659Z,95273.81
2023-03-22T01:30:08.511Z,95259.34
2023-03-22T01:32:37.825Z,95264.44
2023-03-22T01:35:07.006Z,95281.91
2023-03-22T01:37:37.172Z,95280.56
2023-03-22T01:40:06.629Z,95275.72
2023-03-22T01:42:34.995Z,95240.50
2023-03-22T01:45:38.637Z,95274.41
2023-03-22T01:48:16.071Z,95272.00
2023-03-22T01:50:49.660Z,95265.00
2023-03-22T01:53:23.783Z,95263.38
2023-03-22T01:55:53.938Z,95265.25
2023-03-22T01:58:22.308Z,95246.84
2023-03-22T02:00:52.844Z,95256.47
2023-03-22T02:03:28.206Z,95248.94
2023-03-22T02:05:56.923Z,95253.25
2023-03-22T02:08:26.718Z,95244.09
2023-03-22T02:10:55.086Z,95257.22
2023-03-22T02:13:48.780Z,95251.59
2023-03-22T02:16:31.405Z,95255.34
2023-03-22T02:19:16.630Z,95243.03
2023-03-22T02:22:09.983Z,95251.09
2023-03-22T02:25:13.879Z,95240.34
2023-03-22T02:28:17.459Z,95220.72
2023-03-22T02:31:18.372Z,95240.88
2023-03-22T02:34:45.232Z,95218.06
2023-03-22T02:37:49.090Z,95223.47
2023-03-22T02:40:32.379Z,95195.06
2023-03-22T02:43:07.140Z,95224.28
2023-03-22T02:45:41.710Z,95185.63
2023-03-22T02:48:14.367Z,95212.50
2023-03-22T02:50:47.866Z,95220.28
2023-03-22T02:53:20.796Z,95182.41
2023-03-22T02:55:55.637Z,95223.19
2023-03-22T02:58:26.698Z,95223.75
2023-03-22T03:01:00.839Z,95216.75
2023-03-22T03:03:32.242Z,95230.16
2023-03-22T03:06:06.226Z,95206.53
2023-03-22T03:08:35.355Z,95217.88
2023-03-22T03:11:05.805Z,95194.72
2023-03-22T03:13:34.348Z,95219.75
2023-03-22T03:16:07.920Z,95219.19
2023-03-22T03:18:40.788Z,95223.41
2023-03-22T03:21:24.753Z,95217.59
2023-03-22T03:23:56.805Z,95222.59
2023-03-22T03:26:34.872Z,95222.66
2023-03-22T03:29:07.131Z,95186.13
2023-03-22T03:31:42.816Z,95207.63
2023-03-22T03:34:19.224Z,95212.75
2023-03-22T03:36:52.974Z,95188.59
2023-03-22T03:39:22.416Z,95205.72
2023-03-22T03:41:54.640Z,95200.63
2023-03-22T03:44:23.836Z,95212.41
2023-03-22T03:46:54.260Z,95211.88
2023-03-22T03:49:24.998Z,95217.25
2023-03-22T03:51:56.047Z,95212.94
2023-03-22T03:54:25.101Z,95202.97
2023-03-22T03:56:55.043Z,95216.72
2023-03-22T03:59:23.550Z,95183.44
2023-03-22T04:01:52.670Z,95222.06
2023-03-22T04:04:26.893Z,95221.03
2023-03-22T04:06:56.902Z,95220.19
2023-03-22T04:09:27.499Z,95213.75
2023-03-22T04:11:58.305Z,95214.56
2023-03-22T04:14:27.384Z,95217.31
2023-03-22T04:16:56.616Z,95209.50
2023-03-22T04:19:24.948Z,95194.50
2023-03-22T04:21:53.389Z,95201.97
2023-03-22T04:24:22.391Z,95193.19
2023-03-22T04:26:50.950Z,95136.28
2023-03-22T04:29:22.160Z,95194.81
2023-03-22T04:31:50.499Z,95188.34
2023-03-22T04:34:18.917Z,95188.34
2023-03-22T04:36:47.331Z,95183.56
2023-03-22T04:39:15.627Z,95180.56
2023-03-22T04:41:43.963Z,95183.00
2023-03-22T04:44:12.372Z,95191.84
2023-03-22T04:46:42.922Z,95171.75
2023-03-22T04:49:11.235Z,95184.63
2023-03-22T04:51:39.503Z,95187.56
2023-03-22T04:54:08.106Z,95173.38
2023-03-22T04:56:36.496Z,95160.75
2023-03-22T04:59:04.831Z,95175.00
2023-03-22T05:01:35.458Z,95097.75
2023-03-22T05:04:05.599Z,95150.06
2023-03-22T05:06:34.337Z,95151.69
2023-03-22T05:09:03.424Z,95129.41
2023-03-22T05:11:31.817Z,95139.88
2023-03-22T05:14:00.180Z,95146.03
2023-03-22T05:16:28.661Z,95136.38
2023-03-22T05:18:57.109Z,95147.66
2023-03-22T05:21:28.399Z,95148.72
2023-03-22T05:23:58.092Z,95150.84
2023-03-22T05:26:27.533Z,95154.59
2023-03-22T05:28:56.448Z,95156.75
2023-03-22T05:31:24.951Z,95150.88
2023-03-22T05:33:53.727Z,95128.28
2023-03-22T05:36:24.130Z,95168.00
2023-03-22T05:38:53.821Z,95148.72
2023-03-22T05:41:22.157Z,95149.25
2023-03-22T05:43:51.262Z,95153.81
2023-03-22T05:46:19.596Z,95157.81
2023-03-22T05:48:47.944Z,95097.22
2023-03-22T05:51:19.880Z,95160.56
2023-03-22T05:53:49.294Z,95156.50
2023-03-22T05:56:21.998Z,95151.94
2023-03-22T05:58:50.874Z,95154.63
2023-03-22T06:01:20.637Z,95160.56
2023-03-22T06:03:49.582Z,95141.75
2023-03-22T06:06:17.917Z,95147.69
2023-03-22T06:08:46.203Z,95152.50
2023-03-22T06:11:14.629Z,95107.72
2023-03-22T06:13:44.361Z,95155.19
2023-03-22T06:16:12.904Z,95154.91
2023-03-22T06:18:41.309Z,95163.22
2023-03-22T06:21:09.731Z,95161.38
2023-03-22T06:23:38.410Z,95156.00
2023-03-22T06:26:07.005Z,95140.69
2023-03-22T06:28:35.611Z,95157.88
2023-03-22T06:31:09.833Z,95164.31
2023-03-22T06:33:38.523Z,95154.13
2023-03-22T06:36:07.688Z,95169.66
2023-03-22T06:38:36.031Z,95166.47
2023-03-22T06:41:04.456Z,95162.97
2023-03-22T06:43:32.884Z,95165.91
2023-03-22T06:46:01.345Z,95150.09
2023-03-22T06:48:31.536Z,95114.44
2023-03-22T06:51:00.976Z,95166.19
2023-03-22T06:53:29.472Z,95166.97
2023-03-22T06:55:57.897Z,95172.84
2023-03-22T06:58:26.302Z,95171.78
2023-03-22T07:00:56.879Z,95164.81
2023-03-22T07:03:25.413Z,95168.28
2023-03-22T07:06:01.558Z,95132.09
2023-03-22T07:08:29.895Z,95171.00
2023-03-22T07:10:58.467Z,95172.84
2023-03-22T07:13:27.270Z,95173.94
2023-03-22T07:15:57.806Z,95165.88
2023-03-22T07:18:27.114Z,95160.50
2023-03-22T07:20:56.823Z,95161.56
2023-03-22T07:23:25.524Z,95166.44
2023-03-22T07:25:56.150Z,95163.19
2023-03-22T07:28:24.757Z,95155.91
2023-03-22T07:31:01.449Z,95133.44
2023-03-22T07:33:29.850Z,95174.44
2023-03-22T07:35:59.903Z,95168.47
2023-03-22T07:38:28.245Z,95157.22
2023-03-22T07:40:56.765Z,95161.22
2023-03-22T07:43:25.449Z,95149.16
2023-03-22T07:45:54.521Z,95159.31
2023-03-22T07:48:24.169Z,95151.44
2023-03-22T07:50:56.518Z,95148.31
2023-03-22T07:53:26.720Z,95150.06
2023-03-22T07:55:55.070Z,95157.06
2023-03-22T07:58:23.360Z,95153.84
2023-03-22T08:00:51.749Z,95132.41
2023-03-22T08:03:20.227Z,95147.38
2023-03-22T08:05:48.717Z,95151.63
2023-03-22T08:08:17.101Z,95147.91
2023-03-22T08:10:50.491Z,95152.22
2023-03-22T08:13:18.864Z,95160.03
2023-03-22T08:15:47.501Z,95151.38
2023-03-22T08:18:16.001Z,95168.28
2023-03-22T08:20:45.473Z,95166.09
2023-03-22T08:23:16.238Z,95156.66
2023-03-22T08:25:46.297Z,95127.97
2023-03-22T08:28:15.945Z,95156.00
2023-03-22T08:30:44.831Z,95169.09
2023-03-22T08:33:13.549Z,95156.75
2023-03-22T08:35:42.787Z,95135.81
2023-03-22T08:38:11.188Z,95148.09
2023-03-22T08:40:39.554Z,95131.19
2023-03-22T08:43:09.591Z,95151.00
2023-03-22T08:45:38.325Z,95122.34
2023-03-22T08:48:07.563Z,95133.47
2023-03-22T08:50:36.246Z,95125.28
2023-03-22T08:53:05.854Z,95138.50
2023-03-22T08:55:36.588Z,95131.81
2023-03-22T08:58:05.563Z,95140.19
2023-03-22T09:00:47.711Z,95133.44
2023-03-22T09:03:17.326Z,95108.91
2023-03-22T09:05:45.707Z,95122.47
2023-03-22T09:08:19.116Z,95095.25
2023-03-22T09:10:51.844Z,95095.00
2023-03-22T09:13:21.081Z,95130.63
2023-03-22T09:15:52.774Z,95119.72
2023-03-22T09:18:21.157Z,95117.03
2023-03-22T09:20:49.508Z,95112.75
2023-03-22T09:23:18.399Z,95113.69
2023-03-22T09:25:47.852Z,95103.88
2023-03-22T09:28:16.866Z,95118.28
2023-03-22T09:30:45.780Z,95112.66
2023-03-22T09:33:15.516Z,95116.84
2023-03-22T09:35:44.446Z,95110.44
2023-03-22T09:38:13.914Z,95110.38
2023-03-22T09:40:52.008Z,95113.41
2023-03-22T09:43:21.016Z,95130.09
2023-03-22T09:45:53.212Z,95075.81
2023-03-22T09:48:29.114Z,95089.47
2023-03-22T09:50:58.065Z,95096.91
2023-03-22T09:53:29.007Z,95088.81
2023-03-22T09:56:02.193Z,95078.53
2023-03-22T09:58:35.791Z,95054.44
2023-03-22T10:01:07.891Z,95090.22
2023-03-22T10:03:59.012Z,95081.38
2023-03-22T10:06:29.558Z,95087.19
2023-03-22T10:09:08.526Z,95081.22
2023-03-22T10:11:46.148Z,95071.34
2023-03-22T10:14:33.270Z,95090.47
2023-03-22T10:17:05.820Z,95109.50
2023-03-22T10:19:41.235Z,95074.00
2023-03-22T10:22:12.758Z,95081.81
2023-03-22T10:24:44.502Z,95074.38
2023-03-22T10:27:17.288Z,95083.78
2023-03-22T10:29:50.121Z,95069.03
2023-03-22T10:32:20.271Z,95080.28
2023-03-22T10:34:50.270Z,95069.19
2023-03-22T10:37:21.735Z,95062.63
2023-03-22T10:39:53.232Z,95053.94
2023-03-22T10:42:24.891Z,95079.66
2023-03-22T10:44:57.490Z,95073.09
2023-03-22T10:47:34.007Z,95033.28
2023-03-22T10:50:08.746Z,95026.13
2023-03-22T10:52:44.346Z,95029.16
2023-03-22T10:55:15.646Z,95041.38
2023-03-22T10:57:47.648Z,95040.19
2023-03-22T11:00:18.452Z,95043.41
2023-03-22T11:02:52.794Z,95064.59
2023-03-22T11:05:25.983Z,95048.09
2023-03-22T11:07:54.839Z,95061.47
2023-03-22T11:10:27.719Z,95030.34
2023-03-22T11:12:58.745Z,95059.59
2023-03-22T11:15:30.003Z,95055.47
2023-03-22T11:18:04.057Z,95059.84
2023-03-22T11:20:34.732Z,95032.03
2023-03-22T11:23:07.078Z,95033.03
2023-03-22T11:25:37.872Z,95034.66
2023-03-22T11:28:11.777Z,95044.78
2023-03-22T11:30:40.405Z,95018.31
2023-03-22T11:33:18.920Z,95045.63
2023-03-22T11:35:54.986Z,95037.66
2023-03-22T11:38:31.177Z,95030.16
2023-03-22T11:41:03.022Z,95031.47
2023-03-22T11:43:36.286Z,95024.44
2023-03-22T11:46:06.151Z,95027.53
2023-03-22T11:48:35.474Z,95024.13
2023-03-22T11:51:12.656Z,95016.25
2023-03-22T11:53:43.901Z,94983.81
2023-03-22T11:56:15.060Z,95007.63
2023-03-22T11:58:59.795Z,95000.84
2023-03-22T12:01:36.408Z,94994.09
2023-03-22T12:04:09.304Z,95004.53
2023-03-22T12:06:42.145Z,94988.22
2023-03-22T12:09:23.101Z,94998.59
2023-03-22T12:11:54.714Z,94962.97
2023-03-22T12:14:27.401Z,94964.97
2023-03-22T12:17:01.346Z,94963.78
2023-03-22T12:19:43.176Z,94992.88
2023-03-22T12:22:17.424Z,95000.69
2023-03-22T12:24:47.009Z,94979.44
2023-03-22T12:27:20.165Z,94975.81
2023-03-22T12:29:56.000Z,94985.09
2023-03-22T12:32:27.758Z,94981.50
2023-03-22T12:35:16.134Z,94984.03
2023-03-22T12:37:49.441Z,94976.41
2023-03-22T12:40:23.637Z,94938.41
2023-03-22T12:43:03.855Z,94966.03
2023-03-22T12:45:38.113Z,94954.53
2023-03-22T12:48:13.537Z,94959.09
2023-03-22T12:50:46.860Z,94968.47
2023-03-22T12:53:19.124Z,94964.75
2023-03-22T12:55:49.507Z,94958.03
2023-03-22T12:58:21.430Z,94960.63
2023-03-22T13:00:54.517Z,94955.00
2023-03-22T13:03:29.226Z,94911.97
2023-03-22T13:06:03.375Z,94940.13
2023-03-22T13:09:16.009Z,94941.34
2023-03-22T13:11:45.946Z,94941.22
2023-03-22T13:14:30.680Z,94931.06
2023-03-22T13:17:01.546Z,94940.69
2023-03-22T13:19:34.632Z,94945.09
2023-03-22T13:22:21.397Z,94887.00
2023-03-22T13:25:29.286Z,94900.22
2023-03-22T13:27:59.222Z,94933.03
2023-03-22T13:30:30.500Z,94928.75
2023-03-22T13:33:04.541Z,94911.41
2023-03-22T13:35:44.413Z,94943.47
2023-03-22T13:38:21.753Z,94935.53
2023-03-22T13:40:59.579Z,94929.41
2023-03-22T13:43:34.427Z,94927.31
2023-03-22T13:46:12.800Z,94920.63
2023-03-22T13:48:54.475Z,94920.13
2023-03-22T13:51:30.750Z,94915.31
2023-03-22T13:54:04.803Z,94914.50
2023-03-22T13:56:52.982Z,94894.63
2023-03-22T13:59:27.402Z,94897.25
2023-03-22T14:02:00.657Z,94908.59
2023-03-22T14:04:35.188Z,94907.47
2023-03-22T14:07:10.457Z,94896.00
2023-03-22T14:09:45.709Z,94917.59
2023-03-22T14:12:21.665Z,94921.06
2023-03-22T14:14:56.504Z,94915.41
2023-03-22T14:17:36.830Z,94910.34
2023-03-22T14:20:10.611Z,94891.03
